Temp: 12.9°C   Baro: 995.2mb
  Wind: 6.0mph   Dir: SW (225°)
  Rain: 1.8mm (0.0mm/hr)
  Solar: 278W/m2  Hum: 83%
 
Bath Spa Weather Station Historical Data
Daily Summary for April 13, 2021 Units:  Metric    English   Both
Daily Weekly Monthly Yearly Custom
  High: Low: Average:
Temperature: 13.4 °C -0.2 °C 6.2 °C
Dew Point: 5.6 °C -1.1 °C 2.7 °C
Humidity: 93% 52.4% 78%
Wind Speed: 11.3km/h 0km/h 2.4km/h
Wind Gust: 20.9km/h - -
Wind- - West
Pressure: 1033.4 hPa 1031 hPa -
Precipitation: 0 mm    
Historical Graphs
 
 
Tabular Data for April 13, 2021
Time Temperature Dew Point Pressure Wind Wind Speed Wind Gust Humidity Rainfall Rate (Hourly) solar
00:04 2.9 °C 1.3 °C 1031.7 hPa Calm     86% 0 mm 0 W/m2
00:09 2.9 °C 1.3 °C 1031.7 hPa Calm     86% 0 mm 0 W/m2
00:14 2.9 °C 1.3 °C 1031.7 hPa Calm     86% 0 mm 0 W/m2
00:19 2.9 °C 1.3 °C 1031.7 hPa Calm     86% 0 mm 0 W/m2
00:24 2.8 °C 1.3 °C 1031.7 hPa Calm     86% 0 mm 0 W/m2
00:29 2.8 °C 1.2 °C 1031.7 hPa Calm     86% 0 mm 0 W/m2
00:34 2.8 °C 1.3 °C 1032.1 hPa Calm     86.8% 0 mm 0 W/m2
00:39 2.7 °C 1.2 °C 1032.1 hPa Calm     87% 0 mm 0 W/m2
00:43 2.6 °C 1.1 °C 1032.1 hPa Calm     87% 0 mm 0 W/m2
00:49 2.4 °C 1 °C 1032.1 hPa Calm     87% 0 mm 0 W/m2
00:54 2.4 °C 1 °C 1032.1 hPa Calm     87% 0 mm 0 W/m2
00:59 2.3 °C 0.9 °C 1032.1 hPa Calm     87% 0 mm 0 W/m2
01:04 2.3 °C 0.9 °C 1032.1 hPa Calm     87% 0 mm 0 W/m2
01:09 2.3 °C 0.9 °C 1031.7 hPa Calm     87% 0 mm 0 W/m2
01:14 2.3 °C 0.9 °C 1032.1 hPa Calm     87% 0 mm 0 W/m2
01:19 2.2 °C 0.8 °C 1031.7 hPa Calm     87.2% 0 mm 0 W/m2
01:24 2.2 °C 0.9 °C 1031.7 hPa Calm     88% 0 mm 0 W/m2
01:29 2.2 °C 0.8 °C 1031.7 hPa Calm     88% 0 mm 0 W/m2
01:34 2.1 °C 0.8 °C 1031.7 hPa Calm     88% 0 mm 0 W/m2
01:39 2.1 °C 0.8 °C 1031.7 hPa Calm     88% 0 mm 0 W/m2
01:44 1.9 °C 0.7 °C 1031.7 hPa Calm     88% 0 mm 0 W/m2
01:49 1.9 °C 0.6 °C 1031.7 hPa Calm     88% 0 mm 0 W/m2
01:54 1.8 °C 0.5 °C 1031.7 hPa Calm     88% 0 mm 0 W/m2
01:59 1.7 °C 0.4 °C 1032.1 hPa Calm     88% 0 mm 0 W/m2
02:04 1.7 °C 0.4 °C 1032.1 hPa Calm     88% 0 mm 0 W/m2
02:09 1.7 °C 0.4 °C 1032.1 hPa Calm     88% 0 mm 0 W/m2
02:14 1.7 °C 0.4 °C 1031.7 hPa Calm     88% 0 mm 0 W/m2
02:19 1.7 °C 0.3 °C 1031.7 hPa Calm     88% 0 mm 0 W/m2
02:24 1.6 °C 0.3 °C 1031.7 hPa Calm     88% 0 mm 0 W/m2
02:29 1.6 °C 0.4 °C 1031.7 hPa Calm     89% 0 mm 0 W/m2
02:34 1.5 °C 0.4 °C 1031.7 hPa Calm     89% 0 mm 0 W/m2
02:39 1.5 °C 0.3 °C 1031.7 hPa Calm     88.8% 0 mm 0 W/m2
02:44 1.4 °C 0.3 °C 1031.7 hPa Calm     88.6% 0 mm 0 W/m2
02:49 1.4 °C 0.3 °C 1031.7 hPa Calm     89% 0 mm 0 W/m2
02:54 1.3 °C 0.2 °C 1032.1 hPa Calm     89% 0 mm 0 W/m2
02:59 1.3 °C 0.2 °C 1032.1 hPa Calm     89% 0 mm 0 W/m2
03:04 1.3 °C 0.2 °C 1032.1 hPa Calm     89% 0 mm 0 W/m2
03:09 1.3 °C 0.2 °C 1032.1 hPa Calm     89% 0 mm 0 W/m2
03:14 1.2 °C 0.1 °C 1032.1 hPa Calm     89% 0 mm 0 W/m2
03:19 1.2 °C 0.1 °C 1032.1 hPa Calm     89% 0 mm 0 W/m2
03:24 1.1 °C 0 °C 1032.1 hPa Calm     89% 0 mm 0 W/m2
03:29 1.1 °C 0 °C 1032.1 hPa Calm     89% 0 mm 0 W/m2
03:34 1.1 °C 0 °C 1032.1 hPa Calm     89% 0 mm 0 W/m2
03:39 1 °C -0.1 °C 1032.1 hPa Calm     89% 0 mm 0 W/m2
03:44 0.9 °C -0.2 °C 1032.1 hPa Calm     89% 0 mm 0 W/m2
03:49 0.8 °C -0.3 °C 1032.1 hPa Calm     89% 0 mm 0 W/m2
03:54 0.8 °C -0.3 °C 1032.1 hPa Calm     89% 0 mm 0 W/m2
03:59 0.7 °C -0.4 °C 1032.1 hPa Calm     89% 0 mm 0 W/m2
04:04 0.7 °C -0.4 °C 1032.1 hPa Calm     89% 0 mm 0 W/m2
04:09 0.7 °C -0.4 °C 1032.1 hPa Calm     89% 0 mm 0 W/m2
04:14 0.6 °C -0.5 °C 1032.1 hPa Calm     89% 0 mm 0 W/m2
04:19 0.5 °C -0.6 °C 1032.1 hPa Calm     89% 0 mm 0 W/m2
04:24 0.5 °C -0.6 °C 1032.1 hPa Calm     89% 0 mm 0 W/m2
04:29 0.4 °C -0.6 °C 1032.1 hPa Calm     89.8% 0 mm 0 W/m2
04:34 0.4 °C -0.6 °C 1032.1 hPa Calm     90% 0 mm 0 W/m2
04:39 0.4 °C -0.6 °C 1032.1 hPa Calm     90% 0 mm 0 W/m2
04:44 0.3 °C -0.7 °C 1032.1 hPa Calm     89.8% 0 mm 0 W/m2
04:49 0.3 °C -0.7 °C 1032.1 hPa Calm     89.6% 0 mm 0 W/m2
04:54 0.3 °C -0.7 °C 1032.1 hPa Calm     90% 0 mm 0 W/m2
04:59 0.2 °C -0.8 °C 1032.1 hPa Calm     90% 0 mm 0 W/m2
05:04 0.2 °C -0.8 °C 1032.1 hPa Calm     90% 0 mm 0 W/m2
05:09 0.2 °C -0.8 °C 1032.1 hPa Calm     90% 0 mm 0 W/m2
05:14 0.1 °C -0.9 °C 1032.1 hPa Calm     90% 0 mm 0 W/m2
05:19 -0.1 °C -0.9 °C 1032.1 hPa Calm     90% 0 mm 0 W/m2
05:24 -0.1 °C -1 °C 1032.1 hPa Calm     90% 0 mm 0 W/m2
05:29 -0.1 °C -1 °C 1032.1 hPa Calm     90% 0 mm 0 W/m2
05:34 -0.2 °C -1.1 °C 1032.1 hPa Calm     90% 0 mm 0 W/m2
05:39 -0.1 °C -1 °C 1032.1 hPa Calm     90% 0 mm 0 W/m2
05:44 -0.1 °C -0.9 °C 1032.1 hPa Calm     90% 0 mm 0 W/m2
05:49 0.1 °C -0.9 °C 1032.1 hPa Calm   1.6 km/h 90% 0 mm 0 W/m2
05:54 0.2 °C -0.8 °C 1032.1 hPa Calm   1.6 km/h 90% 0 mm 0 W/m2
05:59 0.2 °C -0.8 °C 1032.1 hPa Calm   1.6 km/h 90% 0 mm 0 W/m2
06:04 0.2 °C -0.8 °C 1032.1 hPa Calm     90% 0 mm 0 W/m2
06:09 0.2 °C -0.8 °C 1032.1 hPa Calm     90% 0 mm 0 W/m2
06:14 0.1 °C -0.9 °C 1032.1 hPa Calm     90% 0 mm 0 W/m2
06:19 0.1 °C -0.9 °C 1032.4 hPa Calm     90% 0 mm 5 W/m2
06:24 -0.1 °C -0.9 °C 1032.4 hPa Calm     90.5% 0 mm 5 W/m2
06:29 -0.1 °C -0.8 °C 1032.4 hPa Calm     91% 0 mm 9 W/m2
06:34 0.1 °C -0.8 °C 1032.4 hPa Calm   1.6 km/h 90.8% 0 mm 11 W/m2
06:39 0.1 °C -0.7 °C 1032.4 hPa Calm   1.6 km/h 91% 0 mm 16 W/m2
06:44 0.1 °C -0.7 °C 1032.4 hPa Calm   1.6 km/h 91% 0 mm 18 W/m2
06:49 0.1 °C -0.7 °C 1032.4 hPa Calm     91% 0 mm 21 W/m2
06:54 0.2 °C -0.6 °C 1032.4 hPa Calm     91% 0 mm 30 W/m2
06:59 0.3 °C -0.6 °C 1032.7 hPa Calm     91% 0 mm 35 W/m2
07:04 0.3 °C -0.5 °C 1032.7 hPa Calm     91% 0 mm 37 W/m2
07:09 0.3 °C -0.5 °C 1032.7 hPa Calm     91% 0 mm 37 W/m2
07:14 0.4 °C -0.3 °C 1032.7 hPa Calm     91% 0 mm 39 W/m2
07:19 0.6 °C -0.2 °C 1032.7 hPa Calm     91% 0 mm 40 W/m2
07:24 0.8 °C -0.1 °C 1032.7 hPa Calm     91% 0 mm 51 W/m2
07:29 0.9 °C 0.2 °C 1032.7 hPa Calm     91% 0 mm 51 W/m2
07:34 1 °C 0.2 °C 1032.7 hPa Calm     91% 0 mm 47 W/m2
07:39 1.1 °C 0.3 °C 1032.7 hPa Calm     91% 0 mm 46 W/m2
07:44 1.2 °C 0.4 °C 1032.7 hPa Calm     91% 0 mm 60 W/m2
07:49 1.4 °C 0.7 °C 1032.7 hPa Calm     91% 0 mm 65 W/m2
07:54 1.7 °C 0.9 °C 1032.7 hPa Calm     91.6% 0 mm 76 W/m2
07:59 1.9 °C 1.1 °C 1032.7 hPa Calm     91.4% 0 mm 83 W/m2
08:04 2.1 °C 1.3 °C 1032.7 hPa Calm     91.8% 0 mm 86 W/m2
08:09 2.2 °C 1.5 °C 1032.7 hPa Calm     92% 0 mm 90 W/m2
08:14 2.3 °C 1.6 °C 1033.1 hPa Calm     92% 0 mm 91 W/m2
08:19 2.4 °C 1.8 °C 1033.1 hPa Calm     92% 0 mm 93 W/m2
08:24 2.7 °C 1.9 °C 1033.1 hPa Calm     92% 0 mm 97 W/m2
08:29 2.7 °C 2 °C 1033.1 hPa Calm     92% 0 mm 107 W/m2
08:34 2.8 °C 2.1 °C 1033.1 hPa Calm     92% 0 mm 134 W/m2
08:39 2.9 °C 2.2 °C 1033.1 hPa Calm     92% 0 mm 160 W/m2
08:44 3.2 °C 2.4 °C 1033.1 hPa Calm     92% 0 mm 144 W/m2
08:49 3.3 °C 2.6 °C 1033.1 hPa NW 0.6 km/h 3.2 km/h 92% 0 mm 151 W/m2
08:54 3.3 °C 2.6 °C 1033.1 hPa NW 1.9 km/h 3.2 km/h 92% 0 mm 148 W/m2
08:59 3.3 °C 2.6 °C 1033.1 hPa NW 2.4 km/h 6.4 km/h 92% 0 mm 134 W/m2
09:04 3.3 °C 2.6 °C 1033.1 hPa NW 3.2 km/h 6.4 km/h 92% 0 mm 144 W/m2
09:08 3.3 °C 2.6 °C 1033.1 hPa NW 2.7 km/h 6.4 km/h 92% 0 mm 158 W/m2
09:14 3.4 °C 2.8 °C 1033.1 hPa NW 1.3 km/h 6.4 km/h 92.2% 0 mm 162 W/m2
09:19 3.4 °C 2.8 °C 1033.1 hPa NW 0.6 km/h 6.4 km/h 92.4% 0 mm 167 W/m2
09:24 3.6 °C 3 °C 1033.1 hPa NW 2.9 km/h 6.4 km/h 92.8% 0 mm 221 W/m2
09:29 3.7 °C 3.2 °C 1033.1 hPa NW 4.5 km/h 6.4 km/h 92.8% 0 mm 241 W/m2
09:34 3.9 °C 3.4 °C 1033.1 hPa NW 4.5 km/h 6.4 km/h 93% 0 mm 248 W/m2
09:39 3.8 °C 3.2 °C 1033.1 hPa NW 5.1 km/h 8 km/h 92.2% 0 mm 244 W/m2
09:44 3.9 °C 3.3 °C 1033.1 hPa SW 5.1 km/h 9.7 km/h 92.3% 0 mm 499 W/m2
09:49 4.3 °C 3.7 °C 1033.1 hPa SSW 5.1 km/h 8 km/h 92.2% 0 mm 587 W/m2
09:54 4.6 °C 3.9 °C 1033.1 hPa SSW 4.5 km/h 8 km/h 92% 0 mm 587 W/m2
09:59 5.1 °C 4.4 °C 1033.1 hPa SSW 5.1 km/h 8 km/h 92% 0 mm 531 W/m2
10:04 5.3 °C 4.3 °C 1033.1 hPa SSW 6.4 km/h 9.7 km/h 90.6% 0 mm 536 W/m2
10:09 5.4 °C 4.4 °C 1033.1 hPa South 6.4 km/h 9.7 km/h 89.8% 0 mm 557 W/m2
10:14 5.7 °C 4.5 °C 1033.4 hPa South 5.8 km/h 9.7 km/h 88.6% 0 mm 615 W/m2
10:19 5.7 °C 4.4 °C 1033.4 hPa South 5.3 km/h 9.7 km/h 87.6% 0 mm 564 W/m2
10:24 5.9 °C 4.4 °C 1033.4 hPa South 6.1 km/h 11.3 km/h 87% 0 mm 666 W/m2
10:29 6.1 °C 4.5 °C 1033.4 hPa South 1.9 km/h 8 km/h 86.4% 0 mm 643 W/m2
10:34 6.6 °C 4.9 °C 1033.4 hPa South 4 km/h 6.4 km/h 85.8% 0 mm 654 W/m2
10:39 6.8 °C 4.8 °C 1033.4 hPa South 3.9 km/h 9.7 km/h 84.8% 0 mm 621 W/m2
10:44 6.9 °C 4.9 °C 1033.4 hPa South 1.9 km/h 9.7 km/h 84% 0 mm 715 W/m2
10:49 7.5 °C 5.2 °C 1033.4 hPa South 2.9 km/h 6.4 km/h 82.4% 0 mm 635 W/m2
10:54 7.7 °C 5.1 °C 1033.4 hPa South 2.7 km/h 8 km/h 81.3% 0 mm 642 W/m2
10:59 7.6 °C 5 °C 1033.4 hPa South 3.9 km/h 11.3 km/h 81% 0 mm 870 W/m2
11:04 8.1 °C 5.4 °C 1033.4 hPa South 3.4 km/h 6.4 km/h 80.6% 0 mm 686 W/m2
11:09 8.4 °C 5.5 °C 1033.1 hPa South 4 km/h 8 km/h 79.2% 0 mm 527 W/m2
11:14 7.9 °C 4.9 °C 1033.4 hPa South 3.2 km/h 9.7 km/h 78.4% 0 mm 482 W/m2
11:19 7.7 °C 4.9 °C 1033.1 hPa South 3.2 km/h 8 km/h 79.4% 0 mm 513 W/m2
11:24 7.8 °C 4.9 °C 1033.1 hPa South 4.5 km/h 8 km/h 79% 0 mm 612 W/m2
11:29 8.1 °C 5.2 °C 1033.1 hPa South 3.2 km/h 6.4 km/h 79% 0 mm 499 W/m2
11:34 8.5 °C 5.3 °C 1033.1 hPa South 3.4 km/h 6.4 km/h 77.4% 0 mm 534 W/m2
11:39 8.9 °C 5.6 °C 1033.1 hPa South 3.4 km/h 8 km/h 76.8% 0 mm 436 W/m2
11:44 9.1 °C 5.5 °C 1033.1 hPa South 1.9 km/h 4.8 km/h 75.4% 0 mm 434 W/m2
11:49 8.7 °C 5 °C 1033.1 hPa South 3.2 km/h 4.8 km/h 75% 0 mm 425 W/m2
11:54 9.1 °C 5.4 °C 1033.1 hPa South 3.7 km/h 8 km/h 75.2% 0 mm 469 W/m2
11:59 9.1 °C 5.2 °C 1032.7 hPa South 3.1 km/h 8 km/h 74% 0 mm 506 W/m2
12:04 8.9 °C 5.1 °C 1032.7 hPa South 3.4 km/h 8 km/h 74% 0 mm 548 W/m2
12:09 9.2 °C 5.1 °C 1032.7 hPa South 3.4 km/h 6.4 km/h 73.2% 0 mm 497 W/m2
12:14 9.5 °C 5.3 °C 1032.7 hPa South 0.6 km/h 6.4 km/h 72.4% 0 mm 489 W/m2
12:19 9.9 °C 5.6 °C 1032.7 hPa South 1.9 km/h 3.2 km/h 71.8% 0 mm 504 W/m2
12:24 10 °C 5.3 °C 1032.7 hPa South 3.2 km/h 4.8 km/h 70% 0 mm 526 W/m2
12:29 10.4 °C 5.6 °C 1032.7 hPa South 3.5 km/h 6.4 km/h 69.8% 0 mm 503 W/m2
12:34 10.7 °C 5.4 °C 1032.7 hPa South 3.2 km/h 6.4 km/h 67.4% 0 mm 489 W/m2
12:39 10.4 °C 5.1 °C 1032.7 hPa South 3.9 km/h 6.4 km/h 67% 0 mm 510 W/m2
12:44 10.2 °C 4.9 °C 1032.7 hPa South 4.7 km/h 8 km/h 67.4% 0 mm 485 W/m2
12:49 10.3 °C 4.9 °C 1032.7 hPa South 1.9 km/h 8 km/h 67% 0 mm 445 W/m2
12:54 10.9 °C 5.5 °C 1032.7 hPa South 3.4 km/h 8 km/h 67% 0 mm 439 W/m2
12:59 11.6 °C 5.6 °C 1032.7 hPa South 4 km/h 9.7 km/h 64.2% 0 mm 606 W/m2
13:04 11.8 °C 5.3 °C 1032.7 hPa SE 3.2 km/h 9.7 km/h 62.6% 0 mm 633 W/m2
13:09 12.2 °C 5.4 °C 1032.7 hPa SE 2.9 km/h 6.4 km/h 61.2% 0 mm 566 W/m2
13:14 12.1 °C 5.3 °C 1032.7 hPa SSE 4 km/h 9.7 km/h 61.4% 0 mm 527 W/m2
13:19 11.2 °C 4.8 °C 1032.4 hPa West 3.4 km/h 11.3 km/h 62.6% 0 mm 601 W/m2
13:24 11.2 °C 4.8 °C 1032.4 hPa West 5.1 km/h 9.7 km/h 63% 0 mm 603 W/m2
13:29 11.1 °C 4.3 °C 1032.4 hPa West 8.4 km/h 12.9 km/h 61.2% 0 mm 496 W/m2
13:34 10.8 °C 4.2 °C 1032.4 hPa West 3.2 km/h 11.3 km/h 61.4% 0 mm 450 W/m2
13:39 11.1 °C 4.3 °C 1032.4 hPa West 5.1 km/h 9.7 km/h 60.8% 0 mm 483 W/m2
13:44 11.2 °C 4.2 °C 1032.4 hPa WNW 5.8 km/h 11.3 km/h 60.2% 0 mm 592 W/m2
13:49 11.1 °C 4 °C 1032.4 hPa WNW 6.9 km/h 14.5 km/h 59.8% 0 mm 621 W/m2
13:54 11.1 °C 3.7 °C 1032.4 hPa WNW 4.8 km/h 9.7 km/h 58.4% 0 mm 680 W/m2
13:59 11.1 °C 3.4 °C 1032.4 hPa WNW 3.4 km/h 8 km/h 57.6% 0 mm 471 W/m2
14:04 11.2 °C 3.6 °C 1032.4 hPa WNW 5.8 km/h 11.3 km/h 57.6% 0 mm 483 W/m2
14:09 11.3 °C 3.5 °C 1032.4 hPa WNW 6 km/h 11.3 km/h 56.8% 0 mm 761 W/m2
14:13 11.2 °C 3.1 °C 1032.1 hPa WNW 3.5 km/h 9.7 km/h 55.5% 0 mm 828 W/m2
14:19 11.4 °C 3.4 °C 1032.1 hPa WNW 5.5 km/h 9.7 km/h 56% 0 mm 585 W/m2
14:24 12.4 °C 3.9 °C 1032.1 hPa WNW 4.2 km/h 9.7 km/h 54.2% 0 mm 520 W/m2
14:29 12.1 °C 3.3 °C 1032.1 hPa WNW 2.6 km/h 9.7 km/h 53.4% 0 mm 680 W/m2
14:34 12 °C 4.1 °C 1032.1 hPa WNW 6.3 km/h 12.9 km/h 56.4% 0 mm 680 W/m2
14:39 11.7 °C 3.8 °C 1032.1 hPa NW 5.8 km/h 11.3 km/h 56.8% 0 mm 380 W/m2
14:44 11.6 °C 3.8 °C 1032.1 hPa WNW 1.9 km/h 6.4 km/h 57% 0 mm 392 W/m2
14:49 11.6 °C 3.8 °C 1032.1 hPa WNW 0.6 km/h 4.8 km/h 57.2% 0 mm 795 W/m2
14:54 12.1 °C 4.2 °C 1032.1 hPa WNW 1 km/h 4.8 km/h 56.4% 0 mm 568 W/m2
14:59 12.4 °C 3.9 °C 1032.1 hPa WNW 2.1 km/h 8 km/h 54.4% 0 mm 534 W/m2
15:04 12.3 °C 3.9 °C 1032.1 hPa NW 4.3 km/h 11.3 km/h 54.6% 0 mm 548 W/m2
15:09 12.2 °C 3.9 °C 1032.1 hPa NW 6 km/h 14.5 km/h 55% 0 mm 454 W/m2
15:14 11.9 °C 4 °C 1031.7 hPa NW 3.2 km/h 9.7 km/h 56.5% 0 mm 722 W/m2
15:19 12.7 °C 4.3 °C 1031.7 hPa NW 3.4 km/h 8 km/h 54.8% 0 mm 592 W/m2
15:24 13.1 °C 4.5 °C 1031.7 hPa NW 3.2 km/h 11.3 km/h 54% 0 mm 649 W/m2
15:29 13.2 °C 4.3 °C 1031.7 hPa North 5.3 km/h 12.9 km/h 53.2% 0 mm 877 W/m2
15:34 13.4 °C 4.4 °C 1031.7 hPa North 5.1 km/h 11.3 km/h 52.4% 0 mm 605 W/m2
15:39 13.1 °C 4.2 °C 1031.7 hPa WNW 6.3 km/h 16.1 km/h 53% 0 mm 712 W/m2
15:44 12.4 °C 3.9 °C 1031.7 hPa NW 8 km/h 16.1 km/h 54% 0 mm 334 W/m2
15:49 12.2 °C 3.7 °C 1031.7 hPa NW 4.8 km/h 12.9 km/h 54.6% 0 mm 327 W/m2
15:54 12.2 °C 4 °C 1031.7 hPa NW 7.9 km/h 12.9 km/h 55.4% 0 mm 858 W/m2
15:59 12.6 °C 4.3 °C 1031.4 hPa NW 8.7 km/h 14.5 km/h 55% 0 mm 817 W/m2
16:04 12.8 °C 4.1 °C 1031.4 hPa WNW 6.1 km/h 17.7 km/h 53.6% 0 mm 803 W/m2
16:09 12.8 °C 4.2 °C 1031.4 hPa WNW 10.6 km/h 19.3 km/h 54% 0 mm 795 W/m2
16:14 12.7 °C 4.2 °C 1031.4 hPa West 6.8 km/h 17.7 km/h 54.6% 0 mm 791 W/m2
16:19 12.8 °C 4.1 °C 1031.4 hPa WNW 7.9 km/h 16.1 km/h 53.6% 0 mm 798 W/m2
16:24 12.5 °C 3.9 °C 1031.4 hPa WNW 9 km/h 14.5 km/h 54.2% 0 mm 348 W/m2
16:29 12.1 °C 3.9 °C 1031.4 hPa West 7.4 km/h 14.5 km/h 55.4% 0 mm 761 W/m2
16:34 12.5 °C 4.2 °C 1031.4 hPa WNW 6.4 km/h 14.5 km/h 55% 0 mm 747 W/m2
16:39 12.6 °C 4.2 °C 1031.4 hPa WNW 5 km/h 12.9 km/h 54.8% 0 mm 687 W/m2
16:44 12.3 °C 4 °C 1031 hPa WNW 6.6 km/h 12.9 km/h 55% 0 mm 207 W/m2
16:49 12.1 °C 3.8 °C 1031 hPa WNW 7.2 km/h 12.9 km/h 55.2% 0 mm 192 W/m2
16:54 11.8 °C 3.6 °C 1031 hPa WNW 8.7 km/h 12.9 km/h 55.2% 0 mm 192 W/m2
16:59 11.9 °C 3.8 °C 1031 hPa West 7.2 km/h 12.9 km/h 55.6% 0 mm 190 W/m2
17:04 11.8 °C 3.5 °C 1031 hPa WNW 8 km/h 12.9 km/h 55% 0 mm 190 W/m2
17:09 11.7 °C 3.7 °C 1031 hPa WNW 6.6 km/h 9.7 km/h 55.8% 0 mm 200 W/m2
17:14 11.9 °C 3.8 °C 1031 hPa WNW 6.6 km/h 14.5 km/h 55.8% 0 mm 555 W/m2
17:19 11.8 °C 3.6 °C 1031 hPa WNW 8.9 km/h 12.9 km/h 55% 0 mm 267 W/m2
17:24 11.8 °C 3.4 °C 1031 hPa WNW 7.1 km/h 12.9 km/h 55% 0 mm 265 W/m2
17:29 11.8 °C 3.6 °C 1031 hPa WNW 5.8 km/h 8 km/h 55% 0 mm 476 W/m2
17:34 12.2 °C 3.6 °C 1031 hPa WNW 3.2 km/h 8 km/h 53.6% 0 mm 471 W/m2
17:39 12.3 °C 3.7 °C 1031 hPa WNW 4.5 km/h 9.7 km/h 54% 0 mm 248 W/m2
17:44 12.2 °C 3.7 °C 1031 hPa WNW 5.3 km/h 9.7 km/h 54% 0 mm 162 W/m2
17:49 12 °C 3.6 °C 1031 hPa WNW 2.1 km/h 6.4 km/h 54.8% 0 mm 123 W/m2
17:54 11.9 °C 3.9 °C 1031 hPa WNW 4 km/h 8 km/h 55.8% 0 mm 84 W/m2
17:59 11.9 °C 3.9 °C 1031 hPa WNW 2.6 km/h 8 km/h 56% 0 mm 67 W/m2
18:04 11.8 °C 3.8 °C 1031 hPa WNW 5.1 km/h 9.7 km/h 56% 0 mm 62 W/m2
18:09 11.6 °C 3.7 °C 1031 hPa WNW 7.2 km/h 11.3 km/h 56.6% 0 mm 74 W/m2
18:14 11.4 °C 4.1 °C 1031 hPa WNW 5.1 km/h 12.9 km/h 58.8% 0 mm 83 W/m2
18:19 11.4 °C 4.2 °C 1031 hPa WNW 7.7 km/h 12.9 km/h 59.2% 0 mm 90 W/m2
18:24 11.3 °C 4.6 °C 1031 hPa NW 10.6 km/h 16.1 km/h 61.2% 0 mm 109 W/m2
18:29 11 °C 4.8 °C 1031 hPa WNW 9.5 km/h 17.7 km/h 63.4% 0 mm 120 W/m2
18:34 10.8 °C 4.9 °C 1031.4 hPa WNW 10.6 km/h 19.3 km/h 64.6% 0 mm 125 W/m2
18:39 10.7 °C 4.9 °C 1031.4 hPa WNW 11.3 km/h 20.9 km/h 65% 0 mm 114 W/m2
18:44 10.6 °C 4.8 °C 1031.4 hPa WNW 11.1 km/h 19.3 km/h 65% 0 mm 74 W/m2
18:49 10.4 °C 4.8 °C 1031.4 hPa NW 7.1 km/h 17.7 km/h 66% 0 mm 54 W/m2
18:54 10.3 °C 4.7 °C 1031.4 hPa WNW 7.1 km/h 12.9 km/h 66% 0 mm 54 W/m2
18:59 10.2 °C 4.6 °C 1031.4 hPa WNW 8.4 km/h 17.7 km/h 66% 0 mm 58 W/m2
19:04 10.1 °C 4.7 °C 1031.4 hPa WNW 7.2 km/h 11.3 km/h 67% 0 mm 54 W/m2
19:09 9.9 °C 4.7 °C 1031.4 hPa WNW 6.8 km/h 12.9 km/h 67.8% 0 mm 44 W/m2
19:14 9.8 °C 4.8 °C 1031.4 hPa WNW 7.7 km/h 12.9 km/h 68.8% 0 mm 39 W/m2
19:19 9.7 °C 4.9 °C 1031.4 hPa WNW 5.8 km/h 9.7 km/h 69.8% 0 mm 39 W/m2
19:24 9.7 °C 5 °C 1031.4 hPa WNW 5.3 km/h 11.3 km/h 70% 0 mm 40 W/m2
19:29 9.6 °C 4.9 °C 1031.4 hPa WNW 4.8 km/h 8 km/h 70% 0 mm 39 W/m2
19:34 9.6 °C 4.9 °C 1031.4 hPa WNW 4.7 km/h 8 km/h 70% 0 mm 28 W/m2
19:39 9.4 °C 4.9 °C 1031.4 hPa WNW 5.1 km/h 6.4 km/h 71% 0 mm 21 W/m2
19:44 9.3 °C 4.9 °C 1031.4 hPa WNW 3.5 km/h 6.4 km/h 71.4% 0 mm 16 W/m2
19:49 9.2 °C 4.8 °C 1031.4 hPa WNW 4.7 km/h 6.4 km/h 72% 0 mm 12 W/m2
19:54 9.1 °C 4.9 °C 1031.4 hPa WNW 4.2 km/h 8 km/h 73% 0 mm 9 W/m2
19:59 8.9 °C 4.8 °C 1031.7 hPa WNW 5.5 km/h 8 km/h 73.2% 0 mm 7 W/m2
20:04 8.7 °C 4.8 °C 1031.7 hPa WNW 4.8 km/h 8 km/h 74% 0 mm 5 W/m2
20:09 8.6 °C 4.7 °C 1031.7 hPa WNW 4.8 km/h 8 km/h 74% 0 mm 0 W/m2
20:14 8.5 °C 4.6 °C 1031.7 hPa WNW 1.6 km/h 6.4 km/h 74% 0 mm 0 W/m2
20:19 8.4 °C 4.5 °C 1031.7 hPa WNW 1.3 km/h 3.2 km/h 74% 0 mm 0 W/m2
20:24 8.3 °C 4.4 °C 1031.7 hPa WNW 1.4 km/h 3.2 km/h 74% 0 mm 0 W/m2
20:29 8.2 °C 4.5 °C 1031.7 hPa Calm   3.2 km/h 75% 0 mm 0 W/m2
20:34 8.1 °C 4.4 °C 1031.7 hPa Calm     75% 0 mm 0 W/m2
20:39 7.9 °C 4.3 °C 1031.7 hPa Calm     75.4% 0 mm 0 W/m2
20:44 7.8 °C 4.3 °C 1031.7 hPa Calm     76% 0 mm 0 W/m2
20:49 7.7 °C 4.2 °C 1031.7 hPa Calm     76% 0 mm 0 W/m2
20:54 7.6 °C 4.1 °C 1032.1 hPa Calm     76.4% 0 mm 0 W/m2
20:59 7.4 °C 4.1 °C 1032.1 hPa Calm     76.8% 0 mm 0 W/m2
21:04 7.3 °C 4.1 °C 1032.1 hPa Calm     77% 0 mm 0 W/m2
21:09 7.2 °C 3.9 °C 1032.1 hPa Calm     77% 0 mm 0 W/m2
21:14 7.2 °C 3.8 °C 1032.1 hPa Calm     77% 0 mm 0 W/m2
21:19 6.9 °C 3.7 °C 1032.1 hPa Calm     77.4% 0 mm 0 W/m2
21:24 6.8 °C 3.8 °C 1032.1 hPa Calm     78% 0 mm 0 W/m2
21:29 6.7 °C 3.7 °C 1032.1 hPa Calm     78% 0 mm 0 W/m2
21:34 6.6 °C 3.5 °C 1032.1 hPa Calm     78% 0 mm 0 W/m2
21:39 6.4 °C 3.6 °C 1032.1 hPa Calm     79% 0 mm 0 W/m2
21:44 6.4 °C 3.6 °C 1032.1 hPa Calm     79% 0 mm 0 W/m2
21:49 6.4 °C 3.5 °C 1032.1 hPa Calm     79% 0 mm 0 W/m2
21:54 6.3 °C 3.4 °C 1032.1 hPa Calm     79% 0 mm 0 W/m2
21:59 6.2 °C 3.3 °C 1032.1 hPa Calm     79% 0 mm 0 W/m2
22:04 6.1 °C 3.2 °C 1032.1 hPa Calm     79% 0 mm 0 W/m2
22:09 6.1 °C 3.3 °C 1032.1 hPa Calm     79.8% 0 mm 0 W/m2
22:14 6.2 °C 3.4 °C 1032.1 hPa Calm     80% 0 mm 0 W/m2
22:19 6.2 °C 3.5 °C 1032.1 hPa Calm     80% 0 mm 0 W/m2
22:24 6.2 °C 3.6 °C 1032.1 hPa Calm     80.4% 0 mm 0 W/m2
22:29 6.2 °C 3.7 °C 1032.1 hPa Calm     81% 0 mm 0 W/m2
22:34 6.2 °C 3.7 °C 1032.1 hPa Calm     81% 0 mm 0 W/m2
22:39 6.2 °C 3.7 °C 1032.1 hPa Calm     81% 0 mm 0 W/m2
22:44 6.3 °C 3.8 °C 1032.1 hPa Calm     81.4% 0 mm 0 W/m2
22:49 6.3 °C 3.9 °C 1032.1 hPa Calm     82% 0 mm 0 W/m2
22:54 6.3 °C 3.9 °C 1032.1 hPa Calm     82% 0 mm 0 W/m2
22:59 6.2 °C 3.8 °C 1032.1 hPa Calm     82% 0 mm 0 W/m2
23:04 6.2 °C 3.8 °C 1032.1 hPa Calm     82% 0 mm 0 W/m2
23:09 6.2 °C 3.9 °C 1032.1 hPa Calm     82.4% 0 mm 0 W/m2
23:14 6.2 °C 4 °C 1032.1 hPa Calm     83% 0 mm 0 W/m2
23:19 6.2 °C 4 °C 1032.1 hPa Calm     83% 0 mm 0 W/m2
23:24 6.2 °C 4 °C 1032.1 hPa Calm     83% 0 mm 0 W/m2
23:29 6.3 °C 4.1 °C 1032.1 hPa Calm     83% 0 mm 0 W/m2
23:33 6.3 °C 4.1 °C 1032.1 hPa Calm     83% 0 mm 0 W/m2
23:39 6.3 °C 4.1 °C 1032.1 hPa Calm     83% 0 mm 0 W/m2
23:44 6.3 °C 4.1 °C 1032.1 hPa Calm     83% 0 mm 0 W/m2
23:49 6.3 °C 4.1 °C 1032.1 hPa Calm     83% 0 mm 0 W/m2
23:54 6.3 °C 4.2 °C 1032.1 hPa Calm     83.2% 0 mm 0 W/m2
23:59 6.3 °C 4.3 °C 1032.1 hPa Calm     84% 0 mm 0 W/m2
Bath Spa Weather
Compliments of Weather Underground - 2 mb